createdAt,value
2022-11-28T02:10:01.943Z,79.67
2022-11-28T02:11:28.192Z,79.37
2022-11-28T02:12:56.183Z,79.29
2022-11-28T02:14:10.559Z,79.12
2022-11-28T02:15:20.263Z,79.16
2022-11-28T02:16:26.946Z,79.26
2022-11-28T02:17:45.823Z,79.12
2022-11-28T02:18:55.281Z,79.07
2022-11-28T02:20:05.017Z,78.90
2022-11-28T02:21:22.536Z,78.97
2022-11-28T02:22:29.187Z,78.95
2022-11-28T02:23:53.772Z,78.86
2022-11-28T02:25:18.619Z,78.61
2022-11-28T02:26:58.647Z,78.61
2022-11-28T02:28:26.489Z,78.52
2022-11-28T02:30:05.109Z,78.37
2022-11-28T02:31:28.468Z,78.37
2022-11-28T02:32:58.097Z,78.37
2022-11-28T02:34:04.360Z,78.22
2022-11-28T02:35:16.538Z,78.28
2022-11-28T02:36:32.292Z,77.99
2022-11-28T02:37:57.180Z,77.99
2022-11-28T02:39:06.767Z,77.71
2022-11-28T02:42:21.764Z,76.90
2022-11-28T02:43:46.425Z,76.90
2022-11-28T02:44:56.080Z,76.95
2022-11-28T02:46:08.563Z,76.92
2022-11-28T02:47:23.902Z,76.93
2022-11-28T02:48:33.221Z,76.73
2022-11-28T02:49:42.673Z,76.50
2022-11-28T02:51:01.608Z,76.44
2022-11-28T02:52:11.080Z,76.30
2022-11-28T02:53:17.698Z,76.06
2022-11-28T02:54:22.704Z,75.96
2022-11-28T02:55:26.643Z,75.90
2022-11-28T02:56:29.855Z,75.84
2022-11-28T02:57:41.633Z,75.74
2022-11-28T02:58:44.720Z,75.56
2022-11-28T02:59:51.340Z,75.52
2022-11-28T03:00:55.215Z,75.20
2022-11-28T03:02:00.708Z,75.21
2022-11-28T03:03:16.489Z,75.12
2022-11-28T03:04:26.023Z,75.10
2022-11-28T03:05:44.780Z,74.92
2022-11-28T03:07:03.263Z,74.93
2022-11-28T03:08:09.901Z,74.89
2022-11-28T03:09:22.475Z,74.88
2022-11-28T03:10:35.259Z,74.75
2022-11-28T03:12:09.857Z,74.64
2022-11-28T03:13:28.338Z,74.57
2022-11-28T03:14:51.629Z,74.51
2022-11-28T03:16:19.449Z,74.41
2022-11-28T03:17:29.370Z,74.39
2022-11-28T03:18:36.137Z,74.24
2022-11-28T03:19:59.387Z,74.22
2022-11-28T03:21:09.100Z,74.12
2022-11-28T03:23:44.582Z,74.05
2022-11-28T03:25:07.924Z,74.05
2022-11-28T03:26:20.687Z,74.02
2022-11-28T03:27:27.376Z,73.95
2022-11-28T03:28:42.055Z,74.03
2022-11-28T03:29:48.334Z,74.02
2022-11-28T03:31:06.488Z,73.94
2022-11-28T03:33:35.808Z,73.92
2022-11-28T03:34:44.284Z,73.81
2022-11-28T03:35:51.240Z,73.65
2022-11-28T03:37:03.676Z,73.64
2022-11-28T03:38:22.420Z,73.66
2022-11-28T03:39:32.045Z,73.55
2022-11-28T03:40:45.041Z,73.49
2022-11-28T03:41:51.720Z,73.35
2022-11-28T03:43:04.456Z,73.35
2022-11-28T03:44:11.078Z,73.33
2022-11-28T03:45:17.741Z,73.38
2022-11-28T03:46:24.566Z,73.45
2022-11-28T03:47:31.375Z,73.46
2022-11-28T03:48:37.757Z,73.43
2022-11-28T03:49:44.414Z,73.42
2022-11-28T03:50:51.114Z,73.38
2022-11-28T03:52:06.312Z,73.32
2022-11-28T03:53:18.978Z,73.34
2022-11-28T03:54:31.523Z,73.28
2022-11-28T03:55:47.508Z,73.21
2022-11-28T03:57:00.267Z,73.27
2022-11-28T03:58:13.113Z,73.13
2022-11-28T03:59:19.831Z,73.14
2022-11-28T04:00:24.682Z,73.08
2022-11-28T04:01:31.376Z,73.07
2022-11-28T04:02:38.250Z,73.03
2022-11-28T04:03:44.904Z,72.91
2022-11-28T04:04:54.352Z,72.91
2022-11-28T04:06:04.003Z,72.92
2022-11-28T04:07:16.699Z,72.69
2022-11-28T04:08:23.441Z,72.55
2022-11-28T04:09:39.299Z,72.60
2022-11-28T04:10:46.028Z,72.75
2022-11-28T04:11:58.511Z,72.72
2022-11-28T04:13:17.181Z,72.72
2022-11-28T04:14:29.974Z,72.78
2022-11-28T04:15:57.466Z,72.78
2022-11-28T04:17:16.376Z,72.75
2022-11-28T04:18:23.113Z,72.63
2022-11-28T04:20:49.487Z,72.73
2022-11-28T04:22:17.543Z,72.57
2022-11-28T04:23:22.412Z,72.54
2022-11-28T04:24:29.116Z,72.57
2022-11-28T04:25:35.852Z,72.54
2022-11-28T04:26:42.563Z,72.59
2022-11-28T04:27:52.297Z,72.47
2022-11-28T04:28:58.864Z,72.35
2022-11-28T04:30:04.114Z,72.35
2022-11-28T04:31:09.107Z,72.19
2022-11-28T04:32:14.540Z,72.19
2022-11-28T04:33:20.996Z,72.14
2022-11-28T04:34:26.689Z,72.08
2022-11-28T04:35:36.303Z,72.01
2022-11-28T04:36:43.688Z,71.98
2022-11-28T04:37:48.197Z,71.93
2022-11-28T04:38:58.546Z,71.98
2022-11-28T04:40:02.274Z,72.13
2022-11-28T04:41:12.698Z,72.13
2022-11-28T04:42:28.638Z,72.18
2022-11-28T04:43:38.094Z,72.13
2022-11-28T04:44:56.972Z,72.23
2022-11-28T04:46:06.647Z,72.19
2022-11-28T04:47:10.658Z,72.10
2022-11-28T04:48:13.829Z,72.11
2022-11-28T04:49:17.076Z,72.07
2022-11-28T04:50:23.300Z,72.16
2022-11-28T04:51:46.358Z,72.11
2022-11-28T04:52:55.864Z,72.14
2022-11-28T04:54:08.583Z,72.28
2022-11-28T04:55:30.499Z,72.33
2022-11-28T04:56:39.939Z,72.42
2022-11-28T04:57:46.667Z,72.41
2022-11-28T04:58:50.675Z,72.42
2022-11-28T04:59:55.739Z,72.54
2022-11-28T05:01:01.314Z,72.58
2022-11-28T05:02:06.198Z,72.62
2022-11-28T05:03:10.276Z,72.67
2022-11-28T05:04:14.084Z,72.74
2022-11-28T05:05:20.435Z,72.82
2022-11-28T05:06:32.539Z,72.82
2022-11-28T05:07:35.707Z,72.95
2022-11-28T05:08:38.860Z,73.07
2022-11-28T05:09:42.081Z,73.00
2022-11-28T05:10:45.867Z,73.13
2022-11-28T05:11:49.265Z,73.16
2022-11-28T05:12:52.509Z,73.09
2022-11-28T05:13:56.388Z,73.06
2022-11-28T05:14:59.482Z,73.19
2022-11-28T05:16:03.872Z,73.19
2022-11-28T05:17:07.986Z,73.32
2022-11-28T05:18:11.308Z,73.35
2022-11-28T05:19:15.419Z,73.38
2022-11-28T05:20:18.662Z,73.36
2022-11-28T05:21:21.761Z,73.48
2022-11-28T05:22:25.075Z,73.43
2022-11-28T05:23:28.272Z,73.57
2022-11-28T05:24:32.467Z,73.46
2022-11-28T05:25:39.295Z,73.51
2022-11-28T05:26:42.837Z,73.53
2022-11-28T05:27:46.068Z,73.69
2022-11-28T05:28:50.500Z,73.75
2022-11-28T05:29:53.751Z,73.88
2022-11-28T05:30:59.064Z,73.72
2022-11-28T05:32:02.309Z,73.64
2022-11-28T05:33:05.479Z,73.69
2022-11-28T05:34:08.648Z,73.73
2022-11-28T05:35:12.129Z,73.83
2022-11-28T05:36:16.242Z,73.68
2022-11-28T05:37:19.478Z,73.60
2022-11-28T05:38:22.971Z,73.69
2022-11-28T05:39:26.483Z,73.52
2022-11-28T05:40:29.639Z,73.62
2022-11-28T05:41:33.345Z,73.53
2022-11-28T05:42:36.827Z,73.45
2022-11-28T05:43:40.015Z,73.56
2022-11-28T05:44:43.225Z,73.36
2022-11-28T05:45:46.475Z,73.57
2022-11-28T05:46:49.884Z,73.66
2022-11-28T05:47:53.078Z,73.65
2022-11-28T05:48:56.681Z,73.64
2022-11-28T05:50:00.243Z,73.57
2022-11-28T05:51:07.491Z,73.44
2022-11-28T05:52:10.683Z,73.40
2022-11-28T05:53:13.786Z,73.31
2022-11-28T05:54:17.182Z,73.26
2022-11-28T05:55:20.669Z,73.22
2022-11-28T05:56:23.819Z,73.17
2022-11-28T05:57:28.965Z,73.14
2022-11-28T05:58:32.080Z,73.14
2022-11-28T05:59:35.297Z,73.17
2022-11-28T06:00:38.547Z,73.07
2022-11-28T06:01:41.806Z,73.18
2022-11-28T06:02:44.941Z,73.20
2022-11-28T06:03:48.252Z,73.06
2022-11-28T06:04:51.433Z,73.07
2022-11-28T06:05:54.594Z,73.08
2022-11-28T06:06:57.870Z,73.05
2022-11-28T06:08:01.001Z,73.04
2022-11-28T06:09:04.746Z,73.01
2022-11-28T06:10:08.996Z,72.86
2022-11-28T06:11:14.221Z,72.70
2022-11-28T06:12:17.294Z,72.63
2022-11-28T06:13:20.437Z,72.59
2022-11-28T06:14:23.518Z,72.58
2022-11-28T06:15:26.587Z,72.55
2022-11-28T06:16:30.616Z,72.43
2022-11-28T06:17:33.888Z,72.42
2022-11-28T06:18:37.765Z,72.41
2022-11-28T06:19:41.296Z,72.32
2022-11-28T06:20:44.793Z,72.25
2022-11-28T06:21:50.355Z,72.15
2022-11-28T06:22:53.440Z,72.08
2022-11-28T06:23:58.876Z,72.08
2022-11-28T06:25:02.121Z,71.93
2022-11-28T06:26:08.058Z,71.86
2022-11-28T06:27:11.144Z,71.89
2022-11-28T06:28:14.238Z,71.92
2022-11-28T06:29:17.311Z,71.88
2022-11-28T06:30:20.515Z,71.93
2022-11-28T06:31:27.571Z,71.84
2022-11-28T06:32:30.776Z,71.84
2022-11-28T06:33:34.038Z,71.87
2022-11-28T06:34:37.228Z,71.87
2022-11-28T06:35:40.395Z,71.82
2022-11-28T06:36:44.785Z,71.69
2022-11-28T06:37:47.878Z,71.64
2022-11-28T06:38:51.059Z,71.67
2022-11-28T06:39:54.313Z,71.55
2022-11-28T06:40:58.966Z,71.58
2022-11-28T06:42:02.510Z,71.58
2022-11-28T06:43:05.871Z,71.67
2022-11-28T06:44:14.721Z,71.75
2022-11-28T06:45:18.419Z,71.81
2022-11-28T06:46:22.036Z,71.82
2022-11-28T06:47:25.390Z,71.71
2022-11-28T06:48:28.814Z,71.74
2022-11-28T06:49:32.026Z,71.80
2022-11-28T06:50:35.246Z,71.71
2022-11-28T06:51:39.963Z,71.77
2022-11-28T06:52:43.213Z,71.68
2022-11-28T06:53:46.417Z,71.57
2022-11-28T06:54:49.557Z,71.59
2022-11-28T06:55:52.655Z,71.53
2022-11-28T06:56:55.896Z,71.63
2022-11-28T06:57:59.151Z,71.49
2022-11-28T06:59:02.339Z,71.47
2022-11-28T07:00:06.585Z,71.41
2022-11-28T07:01:13.213Z,71.32
2022-11-28T07:02:16.479Z,71.32
2022-11-28T07:03:19.756Z,71.20
2022-11-28T07:04:23.011Z,71.03
2022-11-28T07:05:27.297Z,70.88
2022-11-28T07:06:30.541Z,70.96
2022-11-28T07:07:41.672Z,70.81
2022-11-28T07:08:39.294Z,70.79
2022-11-28T07:09:43.194Z,70.74
2022-11-28T07:10:46.575Z,70.68
2022-11-28T07:11:49.788Z,70.63
2022-11-28T07:13:05.068Z,70.61
2022-11-28T07:14:05.614Z,70.64
2022-11-28T07:15:09.251Z,70.53
2022-11-28T07:16:16.132Z,70.55
2022-11-28T07:17:19.305Z,70.37
2022-11-28T07:18:22.631Z,70.32
2022-11-28T07:19:25.918Z,70.38
2022-11-28T07:20:29.275Z,70.37
2022-11-28T07:21:32.778Z,70.21
2022-11-28T07:22:35.969Z,70.11
2022-11-28T07:23:39.098Z,70.14
2022-11-28T07:24:42.277Z,69.99
2022-11-28T07:25:45.340Z,69.89
2022-11-28T07:26:48.511Z,69.82
2022-11-28T07:27:51.594Z,69.66
2022-11-28T07:28:56.543Z,69.62
2022-11-28T07:29:59.671Z,69.42
2022-11-28T07:31:12.468Z,69.35
2022-11-28T07:32:15.711Z,69.33
2022-11-28T07:33:18.799Z,69.29
2022-11-28T07:34:22.002Z,69.18
2022-11-28T07:35:25.217Z,69.15
2022-11-28T07:36:29.746Z,69.08
2022-11-28T07:37:32.979Z,68.97
2022-11-28T07:38:36.427Z,68.91
2022-11-28T07:39:39.746Z,68.90
2022-11-28T07:40:43.234Z,68.90
2022-11-28T07:41:46.507Z,68.91
2022-11-28T11:11:57.297Z,72.75
2022-11-28T11:13:02.421Z,72.35
2022-11-28T11:14:10.948Z,72.10
2022-11-28T11:15:23.430Z,72.01
2022-11-28T11:16:47.196Z,71.84
2022-11-28T11:17:50.919Z,71.73
2022-11-28T11:18:55.576Z,71.73
2022-11-28T11:19:58.787Z,71.70
2022-11-28T11:21:17.231Z,71.55
2022-11-28T11:22:23.463Z,71.53
2022-11-28T11:23:28.387Z,71.48
2022-11-28T11:24:31.801Z,71.37
2022-11-28T11:25:34.885Z,71.37
2022-11-28T11:26:41.029Z,71.15
2022-11-28T11:27:53.062Z,71.03
2022-11-28T11:28:56.582Z,71.08
2022-11-28T11:29:59.680Z,70.88
2022-11-28T11:31:06.432Z,70.77
2022-11-28T11:32:27.726Z,70.47
2022-11-28T11:33:36.508Z,70.47
2022-11-28T11:34:44.988Z,70.16
2022-11-28T11:35:49.199Z,70.00
2022-11-28T11:36:55.999Z,70.03
2022-11-28T11:38:19.383Z,69.89
2022-11-28T11:39:25.094Z,69.92
2022-11-28T11:40:29.316Z,69.88
2022-11-28T11:41:33.314Z,69.69
2022-11-28T11:42:36.608Z,69.60
2022-11-28T11:43:39.729Z,69.58
2022-11-28T11:44:42.909Z,69.30
2022-11-28T11:45:51.104Z,69.18
2022-11-28T11:46:57.136Z,69.14
2022-11-28T11:48:01.497Z,69.01
2022-11-28T11:49:04.700Z,68.98
2022-11-28T11:50:11.532Z,68.92
2022-11-28T11:51:32.643Z,68.72
2022-11-28T11:52:34.873Z,68.64
2022-11-28T11:53:38.087Z,68.64
2022-11-28T11:54:56.631Z,68.59
2022-11-28T11:56:03.048Z,68.50
2022-11-28T11:57:34.712Z,68.43
2022-11-28T11:58:16.963Z,68.50
2022-11-28T11:59:23.732Z,68.31
2022-11-28T12:00:30.530Z,68.26
2022-11-28T12:01:35.955Z,68.17
2022-11-28T12:02:45.120Z,68.17
2022-11-28T12:03:57.980Z,67.99
2022-11-28T12:06:25.170Z,67.78
2022-11-28T12:07:34.491Z,67.82
2022-11-28T12:08:46.957Z,67.74
2022-11-28T12:09:54.773Z,67.68
2022-11-28T12:11:01.599Z,67.63
2022-11-28T12:12:17.394Z,67.65
2022-11-28T12:13:23.659Z,67.65
2022-11-28T12:14:32.920Z,67.72
2022-11-28T12:15:57.537Z,67.60
2022-11-28T12:17:47.898Z,67.64
2022-11-28T12:18:33.947Z,67.71
2022-11-28T12:19:52.595Z,67.71
2022-11-28T12:21:12.580Z,67.55
2022-11-28T12:22:33.919Z,67.52
2022-11-28T12:23:55.937Z,67.51
2022-11-28T12:25:14.679Z,67.44
2022-11-28T12:26:27.424Z,67.61
2022-11-28T12:27:46.330Z,67.65
2022-11-28T12:29:21.516Z,67.65
2022-11-28T12:30:28.535Z,67.70
2022-11-28T12:31:44.029Z,67.59
2022-11-28T12:33:10.451Z,67.72
2022-11-28T12:34:32.387Z,67.72
2022-11-28T12:35:44.652Z,67.64
2022-11-28T12:36:54.148Z,67.55
2022-11-28T12:38:24.942Z,67.59
2022-11-28T12:39:34.931Z,67.57
2022-11-28T12:40:47.741Z,67.47
2022-11-28T12:42:04.996Z,67.56
2022-11-28T12:43:14.636Z,67.54
2022-11-28T12:44:21.383Z,67.65
2022-11-28T12:45:34.212Z,67.59
2022-11-28T12:46:46.965Z,67.57
2022-11-28T12:48:11.440Z,67.66
2022-11-28T12:49:29.779Z,67.64
2022-11-28T12:50:45.649Z,67.71
2022-11-28T12:52:18.239Z,67.68
2022-11-28T12:53:33.729Z,67.63
2022-11-28T12:54:52.544Z,67.67
2022-11-28T12:56:08.024Z,67.83
2022-11-28T12:57:14.724Z,67.82
2022-11-28T12:58:21.422Z,67.95
2022-11-28T12:59:30.957Z,68.03
2022-11-28T13:00:37.734Z,68.08
2022-11-28T13:01:47.337Z,68.17
2022-11-28T13:03:09.420Z,68.04
2022-11-28T13:04:32.925Z,68.14
2022-11-28T13:06:03.609Z,68.09
2022-11-28T13:07:19.305Z,68.22
2022-11-28T13:08:54.998Z,68.49
2022-11-28T13:10:24.649Z,68.49
2022-11-28T13:11:40.666Z,68.43
2022-11-28T13:12:53.280Z,68.51
2022-11-28T13:14:02.881Z,68.49
2022-11-28T13:15:21.719Z,68.53
2022-11-28T13:16:37.459Z,68.58
2022-11-28T13:18:00.541Z,68.62
2022-11-28T13:19:31.435Z,68.68
2022-11-28T13:20:42.314Z,68.84
2022-11-28T13:21:54.924Z,68.77
2022-11-28T13:23:04.461Z,68.77
2022-11-28T13:24:26.480Z,68.76
2022-11-28T13:25:39.282Z,68.80
2022-11-28T13:26:59.630Z,68.86
2022-11-28T13:28:09.209Z,68.89
2022-11-28T13:29:37.281Z,68.86
2022-11-28T13:32:19.086Z,68.98
2022-11-28T13:33:28.643Z,68.99
2022-11-28T13:34:32.639Z,69.19
2022-11-28T13:35:36.978Z,69.15
2022-11-28T13:39:18.900Z,69.43
2022-11-28T13:40:31.861Z,69.46
2022-11-28T13:42:21.251Z,69.44
2022-11-28T13:43:06.475Z,69.60
2022-11-28T13:44:15.006Z,69.62
2022-11-28T13:45:32.033Z,69.67
2022-11-28T13:46:33.602Z,69.66
2022-11-28T13:47:37.323Z,69.57
2022-11-28T13:49:50.047Z,69.55
2022-11-28T13:51:18.740Z,69.43
2022-11-28T13:52:30.880Z,69.28
2022-11-28T13:53:34.124Z,69.25
2022-11-28T13:54:43.157Z,69.12
2022-11-28T13:55:48.699Z,69.10
2022-11-28T13:58:29.938Z,69.10
2022-11-28T13:59:33.984Z,69.12
2022-11-28T14:00:37.201Z,69.07
2022-11-28T14:01:46.444Z,69.00
2022-11-28T14:02:55.460Z,68.92
2022-11-28T14:04:02.176Z,68.97
2022-11-28T14:05:08.223Z,69.03
2022-11-28T14:06:14.372Z,69.06
2022-11-28T14:08:41.112Z,69.00
2022-11-28T14:10:03.346Z,68.91
2022-11-28T14:11:28.532Z,68.90
2022-11-28T14:12:38.048Z,68.82
2022-11-28T14:13:51.765Z,68.81
2022-11-28T14:15:07.821Z,68.74
2022-11-28T14:16:51.600Z,68.74
2022-11-28T14:18:47.974Z,68.58
2022-11-28T14:19:32.583Z,68.67
2022-11-28T14:20:59.685Z,68.54
2022-11-28T14:22:21.544Z,68.52
2022-11-28T14:24:00.234Z,68.47
2022-11-28T14:25:07.128Z,68.38
2022-11-28T14:26:16.779Z,68.29
2022-11-28T14:27:29.414Z,68.24
2022-11-28T14:28:37.723Z,68.15
2022-11-28T14:29:41.732Z,68.15
2022-11-28T14:30:46.318Z,68.13
2022-11-28T14:32:21.939Z,68.05
2022-11-28T14:33:03.396Z,67.99
2022-11-28T14:34:10.162Z,67.93
2022-11-28T14:35:19.946Z,67.93
2022-11-28T14:36:35.562Z,67.83
2022-11-28T14:37:54.504Z,67.77
2022-11-28T14:39:07.751Z,67.72
2022-11-28T14:40:46.041Z,67.66
2022-11-28T14:42:09.280Z,67.64
2022-11-28T14:43:34.893Z,67.61
2022-11-28T14:44:56.666Z,67.63
2022-11-28T14:46:29.918Z,67.68
2022-11-28T14:47:36.288Z,67.69
2022-11-28T14:48:41.617Z,67.72
2022-11-28T14:49:44.927Z,67.59
2022-11-28T14:50:53.495Z,67.71
2022-11-28T14:52:37.249Z,67.65
2022-11-28T14:53:35.724Z,67.54
2022-11-28T14:54:43.295Z,67.55
2022-11-28T14:55:46.722Z,67.30
2022-11-28T14:56:56.645Z,67.30
2022-11-28T14:57:59.758Z,67.16
2022-11-28T14:59:04.272Z,67.10
2022-11-28T15:00:16.354Z,66.89
2022-11-28T15:01:32.126Z,66.80
2022-11-28T15:02:53.391Z,66.89
2022-11-28T15:04:15.467Z,66.87
2022-11-28T15:05:38.582Z,66.90
2022-11-28T15:06:43.135Z,66.87
2022-11-28T15:08:14.192Z,66.92
2022-11-28T15:09:25.282Z,66.95
2022-11-28T15:10:49.584Z,67.01
2022-11-28T15:12:12.602Z,67.02
2022-11-28T15:13:49.541Z,67.06
2022-11-28T15:14:57.250Z,67.29
2022-11-28T15:16:06.248Z,67.40
2022-11-28T15:17:12.633Z,67.40
2022-11-28T15:18:19.583Z,67.37
2022-11-28T15:19:38.936Z,67.42
2022-11-28T15:20:53.213Z,67.36
2022-11-28T15:21:56.699Z,67.43
2022-11-28T15:22:59.992Z,67.33
2022-11-28T15:24:06.748Z,67.26
2022-11-28T15:25:21.667Z,67.33
2022-11-28T15:26:29.517Z,67.22
2022-11-28T15:27:33.769Z,67.21
2022-11-28T15:28:37.455Z,67.11
2022-11-28T15:29:40.598Z,67.16
2022-11-28T15:30:47.828Z,67.08
2022-11-28T15:31:54.272Z,66.94
2022-11-28T15:32:59.656Z,67.03
2022-11-28T15:34:03.187Z,66.95
2022-11-28T15:35:12.506Z,67.04
2022-11-28T15:36:27.875Z,67.02
2022-11-28T15:37:34.099Z,66.98
2022-11-28T15:38:39.639Z,66.92
2022-11-28T15:39:46.698Z,66.80
2022-11-28T15:40:52.071Z,66.80
2022-11-28T15:41:57.005Z,66.68
2022-11-28T15:43:04.698Z,66.56
2022-11-28T15:44:11.312Z,66.51
2022-11-28T15:45:24.289Z,66.43
2022-11-28T15:46:33.368Z,66.43
2022-11-28T15:47:37.747Z,66.51
2022-11-28T15:48:50.143Z,66.59
2022-11-28T15:50:02.893Z,66.55
2022-11-28T15:51:07.406Z,66.46
2022-11-28T15:52:14.226Z,66.39
2022-11-28T15:53:19.741Z,66.37
2022-11-28T15:54:40.255Z,66.46
2022-11-28T15:55:44.125Z,66.34
2022-11-28T15:56:59.164Z,66.31
2022-11-28T15:58:21.035Z,66.32
2022-11-28T15:59:24.571Z,66.32
2022-11-28T16:00:27.951Z,66.27
2022-11-28T16:01:33.718Z,66.35
2022-11-28T16:02:40.678Z,66.35
2022-11-28T16:04:00.524Z,66.30
2022-11-28T16:05:08.262Z,66.36
2022-11-28T16:06:12.287Z,66.36
2022-11-28T16:07:16.105Z,66.40
2022-11-28T16:08:28.301Z,66.42
2022-11-28T16:09:34.493Z,66.41
2022-11-28T16:10:38.153Z,66.36
2022-11-28T16:11:44.634Z,66.29
2022-11-28T16:12:48.703Z,66.28
2022-11-28T16:13:55.357Z,66.29
2022-11-28T16:15:01.216Z,66.35
2022-11-28T16:16:08.138Z,66.37
2022-11-28T16:17:20.833Z,66.22
2022-11-28T16:18:27.353Z,66.26
2022-11-28T16:19:34.255Z,66.33
2022-11-28T16:20:37.696Z,66.36
2022-11-28T16:21:53.690Z,66.32
2022-11-28T16:23:22.931Z,66.49
2022-11-28T16:24:33.957Z,66.53
2022-11-28T16:25:35.458Z,66.50
2022-11-28T16:26:38.944Z,66.41
2022-11-28T16:27:44.879Z,66.46
2022-11-28T16:29:09.714Z,66.61
2022-11-28T16:30:37.427Z,66.63
2022-11-28T16:31:43.770Z,66.54
2022-11-28T16:32:47.208Z,66.42
2022-11-28T16:33:51.499Z,66.51
2022-11-28T16:34:56.795Z,66.47
2022-11-28T16:37:35.291Z,66.76
2022-11-28T16:38:38.835Z,66.79
2022-11-28T16:39:42.104Z,66.90
2022-11-28T16:40:45.454Z,66.84
2022-11-28T16:41:55.941Z,66.80
2022-11-28T16:42:59.167Z,66.88
2022-11-28T16:44:08.265Z,66.91
2022-11-28T16:45:17.873Z,66.93
2022-11-28T16:46:23.489Z,66.87
2022-11-28T16:47:30.324Z,66.87
2022-11-28T16:48:42.947Z,66.99
2022-11-28T16:51:12.561Z,66.97
2022-11-28T16:52:24.832Z,66.90
2022-11-28T16:53:48.764Z,66.92
2022-11-28T16:54:53.994Z,66.95
2022-11-28T16:55:57.171Z,67.02
2022-11-28T16:57:14.199Z,67.05
2022-11-28T16:58:20.384Z,67.12
2022-11-28T19:52:48.424Z,72.40
2022-11-28T19:53:51.664Z,72.17
2022-11-28T19:54:54.845Z,72.13
2022-11-28T19:56:07.310Z,72.01
2022-11-28T19:57:10.715Z,71.86
2022-11-28T19:58:14.512Z,71.77
2022-11-28T19:59:17.792Z,71.68
2022-11-28T20:00:21.592Z,71.54
2022-11-28T20:01:25.296Z,71.44
2022-11-28T20:02:28.717Z,71.44
2022-11-28T20:03:33.236Z,71.18
2022-11-28T20:04:36.553Z,71.08
2022-11-28T20:05:40.926Z,71.02
2022-11-28T20:06:44.037Z,70.99
2022-11-28T20:07:47.153Z,70.93
2022-11-28T20:08:52.051Z,70.74
2022-11-28T20:09:55.249Z,70.67
2022-11-28T20:10:58.342Z,70.69
2022-11-28T20:12:01.449Z,70.55
2022-11-28T20:13:06.465Z,70.47
2022-11-28T20:14:13.039Z,70.38
2022-11-28T20:15:18.397Z,70.26
2022-11-28T20:16:21.805Z,70.27
2022-11-28T20:17:24.966Z,70.07
2022-11-28T20:18:28.050Z,70.02
2022-11-28T20:19:31.286Z,69.88
2022-11-28T20:20:34.556Z,69.76
2022-11-28T20:21:37.923Z,69.80
2022-11-28T20:22:41.107Z,69.74
2022-11-28T20:24:58.293Z,69.64
2022-11-28T20:26:03.571Z,69.52
2022-11-28T20:27:06.710Z,69.55
2022-11-28T20:28:09.952Z,69.51
2022-11-28T20:29:16.040Z,69.50
2022-11-28T20:30:19.421Z,69.50
2022-11-28T20:31:26.213Z,69.34
2022-11-28T20:32:29.460Z,69.21
2022-11-28T20:33:32.861Z,69.16
2022-11-28T20:34:35.981Z,69.14
2022-11-28T20:35:39.895Z,69.12
2022-11-28T20:36:43.275Z,69.08
2022-11-28T20:37:46.442Z,69.04
2022-11-28T20:38:49.933Z,69.04
2022-11-28T20:39:53.283Z,68.94
2022-11-28T20:41:04.793Z,68.84
2022-11-28T20:42:08.689Z,68.70
2022-11-28T20:43:11.870Z,68.47
2022-11-28T20:44:15.060Z,68.26
2022-11-28T20:45:18.132Z,68.19
2022-11-28T20:46:26.495Z,68.10
2022-11-28T20:47:29.625Z,67.96
2022-11-28T20:48:32.735Z,67.94
2022-11-28T20:49:35.909Z,67.90
2022-11-28T20:50:42.799Z,67.76
2022-11-28T20:51:46.906Z,67.71
2022-11-28T20:52:50.403Z,67.62
2022-11-28T20:53:54.633Z,67.47
2022-11-28T20:54:57.794Z,67.48
2022-11-28T20:56:03.210Z,67.43
2022-11-28T20:57:20.761Z,67.41
2022-11-28T20:58:11.384Z,67.40
2022-11-28T20:59:16.542Z,67.28
2022-11-28T21:00:24.997Z,67.15
2022-11-28T21:01:26.474Z,67.14
2022-11-28T21:02:29.830Z,67.08
2022-11-28T21:03:33.623Z,67.08
2022-11-28T21:04:36.955Z,67.05
2022-11-28T21:05:40.315Z,66.88
2022-11-28T21:06:44.086Z,66.82
2022-11-28T21:07:47.272Z,66.76
2022-11-28T21:08:50.765Z,66.70
2022-11-28T21:09:55.653Z,66.65
2022-11-28T21:10:59.074Z,66.68
2022-11-28T21:12:02.201Z,66.72
2022-11-28T21:13:05.528Z,66.68
2022-11-28T21:14:09.140Z,66.70
2022-11-28T21:15:12.334Z,66.72
2022-11-28T21:16:18.330Z,66.62
2022-11-28T21:17:21.652Z,66.56
2022-11-28T21:18:24.862Z,66.57
2022-11-28T21:19:28.177Z,66.57
2022-11-28T21:20:31.504Z,66.65
2022-11-28T21:21:37.187Z,66.75
2022-11-28T21:22:40.413Z,66.69
2022-11-28T21:23:44.983Z,66.80
2022-11-28T21:24:50.716Z,66.73
2022-11-28T21:25:54.018Z,66.76
2022-11-28T21:26:57.235Z,66.83
2022-11-28T21:28:00.420Z,66.78
2022-11-28T21:29:05.496Z,66.75
2022-11-28T21:30:09.643Z,66.57
2022-11-28T21:31:16.376Z,66.51
2022-11-28T21:32:19.640Z,66.54
2022-11-28T21:33:23.196Z,66.42
2022-11-28T21:34:26.426Z,66.42
2022-11-28T21:35:29.849Z,66.25
2022-11-28T21:36:33.268Z,66.30
2022-11-28T21:37:36.408Z,66.25
2022-11-28T21:38:39.657Z,66.28
2022-11-28T21:39:43.259Z,66.27
2022-11-28T21:40:51.938Z,66.29
2022-11-28T21:41:55.339Z,66.31
2022-11-28T21:42:58.561Z,66.27
2022-11-28T21:44:02.071Z,66.22
2022-11-28T21:45:05.971Z,66.17
2022-11-28T21:46:10.343Z,66.10
2022-11-28T21:47:14.217Z,66.10
2022-11-28T21:48:17.565Z,65.95
2022-11-28T21:49:20.803Z,65.88
2022-11-28T21:50:24.245Z,65.96
2022-11-28T21:51:29.347Z,65.88
2022-11-28T21:52:32.706Z,65.93
2022-11-28T21:53:36.008Z,65.76
2022-11-28T21:54:39.161Z,65.68
2022-11-28T21:55:42.595Z,65.73
2022-11-28T21:56:47.662Z,65.62
2022-11-28T21:57:50.965Z,65.56
2022-11-28T21:58:54.187Z,65.55
2022-11-28T21:59:57.380Z,65.50
2022-11-28T22:01:02.710Z,65.51
2022-11-28T22:02:11.277Z,65.46
2022-11-28T22:03:14.163Z,65.36
2022-11-28T22:04:16.676Z,65.35
2022-11-28T22:05:19.759Z,65.29
2022-11-28T22:06:25.698Z,65.20
2022-11-28T22:07:35.594Z,65.20
2022-11-28T22:08:38.877Z,65.21
2022-11-28T22:09:41.943Z,65.11
2022-11-28T22:10:45.334Z,64.97
2022-11-28T22:11:48.586Z,64.72
2022-11-28T22:12:53.017Z,64.65
2022-11-28T22:13:56.463Z,64.63
2022-11-28T22:14:59.546Z,64.59
2022-11-28T22:16:09.050Z,64.71
2022-11-28T22:17:13.204Z,64.70
2022-11-28T22:18:16.380Z,64.89
2022-11-28T22:19:19.476Z,64.92
2022-11-28T22:20:23.622Z,65.02
2022-11-28T22:22:33.728Z,65.12
2022-11-28T22:23:38.279Z,65.06
2022-11-28T22:24:41.466Z,65.10
2022-11-28T22:25:52.321Z,64.93
2022-11-28T22:26:55.621Z,64.92
2022-11-28T22:28:01.051Z,65.02
2022-11-28T22:29:04.735Z,65.03
2022-11-28T22:30:09.766Z,65.08
2022-11-28T22:31:16.019Z,65.12
2022-11-28T22:32:19.322Z,65.15
2022-11-28T22:33:23.162Z,65.17
2022-11-28T22:34:26.579Z,65.39
2022-11-28T22:35:30.443Z,65.39
2022-11-28T22:36:34.211Z,65.26
2022-11-28T22:37:39.166Z,65.28
2022-11-28T22:38:43.833Z,65.07
2022-11-28T22:39:47.062Z,65.01
2022-11-28T22:40:50.371Z,64.94
2022-11-28T22:41:53.438Z,64.94
2022-11-28T22:42:56.968Z,64.90
2022-11-28T22:44:01.590Z,64.88
2022-11-28T22:45:06.687Z,64.74
2022-11-28T22:46:10.724Z,64.73
2022-11-28T22:47:13.871Z,64.70
2022-11-28T22:48:17.057Z,64.66
2022-11-28T22:49:20.551Z,64.65
2022-11-28T22:50:23.654Z,64.62
2022-11-28T22:51:27.959Z,64.46
2022-11-28T22:52:31.276Z,64.47
2022-11-28T22:53:34.571Z,64.45
2022-11-28T22:54:38.052Z,64.54
2022-11-28T22:55:41.127Z,64.38
2022-11-28T22:56:44.401Z,64.30
2022-11-28T22:57:47.618Z,64.24
2022-11-28T22:58:50.903Z,64.18
2022-11-28T22:59:54.663Z,64.15
2022-11-28T23:00:57.722Z,64.13
2022-11-28T23:02:02.370Z,64.12
2022-11-28T23:03:05.674Z,64.05
2022-11-28T23:04:09.446Z,64.09
2022-11-28T23:05:12.631Z,64.13
2022-11-28T23:06:18.488Z,64.16
2022-11-28T23:07:21.863Z,64.06
2022-11-28T23:08:27.590Z,64.03
2022-11-28T23:09:30.845Z,64.14
2022-11-28T23:10:36.933Z,64.04
2022-11-28T23:11:40.440Z,64.00
2022-11-28T23:12:43.701Z,64.11
2022-11-28T23:13:47.900Z,64.04
2022-11-28T23:14:51.367Z,64.10
2022-11-28T23:15:54.883Z,64.18
2022-11-28T23:16:58.158Z,64.15
2022-11-28T23:18:01.286Z,64.20
2022-11-28T23:19:08.049Z,64.26
2022-11-28T23:20:12.015Z,64.15
2022-11-28T23:21:15.891Z,64.08
2022-11-28T23:22:18.988Z,64.06
2022-11-28T23:23:22.263Z,64.21
2022-11-28T23:24:25.451Z,64.11
2022-11-28T23:25:28.625Z,64.14
2022-11-28T23:26:32.288Z,64.14
2022-11-28T23:27:35.460Z,64.08
2022-11-28T23:28:39.524Z,64.19
2022-11-28T23:29:42.613Z,64.21
2022-11-28T23:30:46.126Z,64.15
2022-11-28T23:31:49.357Z,64.16